Time;durP1;ratioP1;P1;durP2;ratioP2;P2;SDS_P1;SDS_P2;PMS_P1;PMS_P2;Temp;Humidity;BMP_temperature;BMP_pressure;BME280_temperature;BME280_humidity;BME280_pressure;Samples;Min_cycle;Max_cycle;Signal;HPM_P1;HPM_P2
2023/08/23 00:01:52;;;;;;;5.23;2.50;;;;;;;15.93;100.00;35344.66;4909383;29;20060;-72
2023/08/23 00:04:19;;;;;;;5.67;2.60;;;;;;;15.94;100.00;35693.19;4901901;29;20396;-71
2023/08/23 00:06:47;;;;;;;7.25;2.53;;;;;;;15.89;100.00;40911.75;4904672;29;20028;-72
2023/08/23 00:09:13;;;;;;;5.82;2.80;;;;;;;15.81;100.00;46134.34;4909436;29;20024;-72
2023/08/23 00:11:39;;;;;;;7.17;2.63;;;;;;;15.84;100.00;42301.84;4908389;29;20059;-71
2023/08/23 00:14:05;;;;;;;4.73;2.87;;;;;;;15.89;100.00;36733.63;4906718;29;20314;-71
2023/08/23 00:16:30;;;;;;;2.63;1.83;;;;;;;15.91;100.00;34647.75;4911870;29;20456;-72
2023/08/23 00:18:55;;;;;;;6.27;2.63;;;;;;;15.85;100.00;36035.25;4904011;29;20453;-72
2023/08/23 00:21:21;;;;;;;2.90;1.80;;;;;;;15.83;100.00;35338.28;4907374;29;20068;-73
2023/08/23 00:23:46;;;;;;;3.40;2.07;;;;;;;15.83;100.00;35686.13;4908370;29;20551;-73
2023/08/23 00:26:12;;;;;;;5.70;2.57;;;;;;;15.80;100.00;36727.97;4914382;29;20035;-72
2023/08/23 00:28:39;;;;;;;4.50;2.80;;;;;;;15.80;100.00;37075.94;4902860;29;20421;-72
2023/08/23 00:31:04;;;;;;;4.78;2.20;;;;;;;15.81;100.00;35684.91;4907758;29;20625;-72
2023/08/23 00:33:29;;;;;;;5.63;2.83;;;;;;;15.79;100.00;36031.53;4907024;29;20043;-73
2023/08/23 00:35:55;;;;;;;4.33;2.47;;;;;;;15.77;100.00;38814.16;4910534;29;20063;-73
2023/08/23 00:38:20;;;;;;;7.03;2.47;;;;;;;15.77;100.00;38466.06;4910623;29;20036;-72
2023/08/23 00:40:45;;;;;;;3.93;2.70;;;;;;;15.79;100.00;37771.28;4909539;29;20035;-73
2023/08/23 00:43:11;;;;;;;4.27;2.73;;;;;;;15.83;100.00;31861.50;4906926;29;20123;-72
2023/08/23 00:45:37;;;;;;;4.57;3.00;;;;;;;15.85;100.00;29083.53;4910018;29;20032;-72
2023/08/23 00:48:04;;;;;;;8.55;3.97;;;;;;;15.76;100.00;28731.53;4906473;29;20024;-72
2023/08/23 00:50:30;;;;;;;;;;;;;;;15.79;100.00;28386.06;4907165;29;20678;-73
2023/08/23 00:52:56;;;;;;;13.27;2.90;;;;;;;15.74;100.00;30466.91;4909185;29;20035;-72
2023/08/23 00:55:22;;;;;;;6.20;3.37;;;;;;;15.72;100.00;31855.72;4907651;29;20039;-73
2023/08/23 00:57:49;;;;;;;6.78;2.80;;;;;;;15.74;100.00;30814.28;4907678;29;20162;-73
2023/08/23 01:00:15;;;;;;;;;;;;;;;15.74;100.00;32899.38;4906072;29;20055;-75
2023/08/23 01:02:40;;;;;;;3.67;2.97;;;;;;;15.75;100.00;32204.88;4908180;29;20006;-75
2023/08/23 01:05:06;;;;;;;3.77;2.90;;;;;;;15.76;100.00;33595.47;4907292;29;20043;-75
2023/08/23 01:07:43;;;;;;;5.23;3.23;;;;;;;15.68;100.00;29074.72;4911618;29;20170;-74
2023/08/23 01:10:32;;;;;;;5.33;2.97;;;;;;;15.73;100.00;28730.28;4904707;29;20438;-74
2023/08/23 01:13:09;;;;;;;6.53;3.17;;;;;;;15.77;100.00;26302.31;4909093;29;20595;-75
2023/08/23 01:15:35;;;;;;;4.28;2.70;;;;;;;15.80;100.00;28039.13;4905785;29;20115;-75
2023/08/23 01:18:02;;;;;;;5.78;3.67;;;;;;;15.80;100.00;30817.72;4913623;29;20407;-75
2023/08/23 01:20:28;;;;;;;9.90;3.22;;;;;;;15.82;100.00;31860.94;4905474;29;20056;-75
2023/08/23 01:23:13;;;;;;;8.98;3.97;;;;;;;15.75;100.00;33594.88;4910204;29;20040;-75
2023/08/23 01:25:50;;;;;;;4.38;3.67;;;;;;;15.76;100.00;29426.00;4907038;29;20032;-73
2023/08/23 01:28:15;;;;;;;5.03;3.47;;;;;;;15.76;100.00;29426.00;4905556;29;20511;-75
2023/08/23 01:30:41;;;;;;;6.50;3.90;;;;;;;15.69;100.00;30464.28;4905483;29;20115;-74
2023/08/23 01:33:09;;;;;;;5.83;3.80;;;;;;;15.69;100.00;28728.06;4907339;29;20290;-74
2023/08/23 01:35:44;;;;;;;8.05;4.10;;;;;;;15.65;100.00;29420.66;4909628;29;20285;-74
2023/08/23 01:38:11;;;;;;;4.18;3.63;;;;;;;15.66;100.00;28726.56;4907988;29;20032;-74
2023/08/23 01:40:38;;;;;;;6.28;3.67;;;;;;;15.66;100.00;28032.56;4908970;29;20047;-75
2023/08/23 01:43:03;;;;;;;8.35;3.53;;;;;;;15.61;100.00;31849.41;4909873;29;20023;-75
2023/08/23 01:45:29;;;;;;;9.00;3.73;;;;;;;15.60;100.00;33933.78;4906458;29;20548;-74
2023/08/23 01:47:54;;;;;;;6.40;3.40;;;;;;;15.59;100.00;34281.06;4905347;29;20406;-75
2023/08/23 01:50:20;;;;;;;7.50;4.07;;;;;;;15.57;100.00;31847.19;4904765;29;20124;-75
2023/08/23 01:52:45;;;;;;;8.97;4.10;;;;;;;15.57;100.00;29763.50;4908625;29;20031;-75
2023/08/23 01:55:10;;;;;;;6.03;3.83;;;;;;;15.55;100.00;31499.03;4910417;29;20076;-75
2023/08/23 01:57:36;;;;;;;5.03;3.57;;;;;;;15.52;100.00;32191.81;4909541;29;20084;-75
2023/08/23 02:00:02;;;;;;;6.93;4.10;;;;;;;15.47;100.00;30105.50;4903820;29;20033;-74
2023/08/23 02:02:28;;;;;;;7.43;3.70;;;;;;;15.44;100.00;34619.78;4905683;29;20036;-75
2023/08/23 02:04:53;;;;;;;6.97;4.53;;;;;;;15.44;100.00;34619.78;4909738;29;20070;-74
2023/08/23 02:07:19;;;;;;;7.23;4.40;;;;;;;15.46;100.00;31493.84;4908501;29;20027;-75
2023/08/23 02:09:44;;;;;;;8.97;4.00;;;;;;;15.46;100.00;28716.56;4915009;29;20032;-74
2023/08/23 02:12:09;;;;;;;7.80;4.20;;;;;;;15.43;100.00;28021.09;4910235;29;20503;-75
2023/08/23 02:14:35;;;;;;;5.70;4.00;;;;;;;15.43;100.00;28021.09;4909888;29;20036;-74
2023/08/23 02:17:02;;;;;;;11.50;4.47;;;;;;;15.43;100.00;26633.75;4910517;29;20036;-75
2023/08/23 02:19:27;;;;;;;;;;;;;;;15.45;100.00;25594.28;4911403;29;20028;-75
2023/08/23 02:21:52;;;;;;;8.10;4.50;;;;;;;15.42;100.00;26286.25;4911127;29;19923;-75
2023/08/23 02:24:18;;;;;;;5.90;4.60;;;;;;;15.42;100.00;25592.72;4916324;29;20062;-75
2023/08/23 02:26:43;;;;;;;9.27;4.53;;;;;;;15.38;100.00;25937.66;4906535;29;20135;-74
2023/08/23 02:29:08;;;;;;;8.70;5.00;;;;;;;15.35;100.00;27323.69;4911340;29;20059;-75
2023/08/23 02:31:34;;;;;;;9.10;5.20;;;;;;;15.43;100.00;25593.16;4909475;29;20031;-74
2023/08/23 02:33:59;;;;;;;7.77;5.50;;;;;;;15.38;100.00;25244.44;4908330;29;20076;-75
2023/08/23 02:36:25;;;;;;;9.23;4.93;;;;;;;15.36;100.00;27323.94;4906575;29;20103;-74
2023/08/23 02:38:50;;;;;;;8.27;5.40;;;;;;;15.34;100.00;28016.97;4906128;29;20040;-75
2023/08/23 02:41:15;;;;;;;7.37;5.43;;;;;;;15.27;100.00;26626.09;4909783;29;20036;-73
2023/08/23 02:43:43;;;;;;;10.63;5.67;;;;;;;15.25;100.00;28012.31;4915329;29;20028;-74
2023/08/23 02:46:08;;;;;;;8.23;5.13;;;;;;;15.29;100.00;25933.56;4910734;29;20036;-75
2023/08/23 02:48:33;;;;;;;9.20;5.70;;;;;;;15.31;100.00;25241.34;4907956;29;20127;-74
2023/08/23 02:50:59;;;;;;;10.03;6.40;;;;;;;15.33;100.00;23162.63;4910870;29;20040;-75
2023/08/23 02:53:25;;;;;;;10.10;5.60;;;;;;;15.33;100.00;22816.16;4907785;29;20032;-73
2023/08/23 02:55:50;;;;;;;9.70;6.03;;;;;;;15.42;100.00;21780.47;4910269;29;20123;-74
2023/08/23 02:58:16;;;;;;;12.33;6.10;;;;;;;15.47;100.00;19358.16;4907298;29;20043;-74
2023/08/23 03:00:41;;;;;;;8.57;5.97;;;;;;;15.51;100.00;17282.84;4913525;29;20032;-74
2023/08/23 03:03:07;;;;;;;8.50;6.10;;;;;;;15.58;100.00;18669.47;4911289;29;20027;-75
2023/08/23 03:05:32;;;;;;;9.73;5.73;;;;;;;15.61;100.00;19016.72;4909648;29;20036;-75
2023/08/23 03:07:57;;;;;;;7.27;5.47;;;;;;;15.59;100.00;20401.44;4910175;29;20031;-74
2023/08/23 03:10:23;;;;;;;12.00;6.97;;;;;;;15.65;100.00;20403.44;4922919;29;20536;-75
2023/08/23 03:12:48;;;;;;;8.83;6.80;;;;;;;15.63;100.00;21095.56;4908200;29;20036;-75
2023/08/23 03:15:14;;;;;;;9.00;5.93;;;;;;;15.64;100.00;21788.94;4911203;29;20056;-74
2023/08/23 03:17:39;;;;;;;10.73;6.73;;;;;;;15.56;100.00;23172.00;4912054;29;20035;-74
2023/08/23 03:20:05;;;;;;;7.90;6.30;;;;;;;15.60;100.00;20748.22;4910883;29;20058;-74
2023/08/23 03:22:31;;;;;;;8.65;6.15;;;;;;;15.57;100.00;21093.53;4908942;29;20049;-72
2023/08/23 03:24:56;;;;;;;11.43;6.07;;;;;;;15.52;100.00;21091.47;4913073;29;20047;-73
2023/08/23 03:27:22;;;;;;;14.43;6.63;;;;;;;15.45;100.00;22474.50;4906406;29;20548;-72
2023/08/23 03:29:47;;;;;;;8.97;6.27;;;;;;;15.42;100.00;22127.06;4908488;29;20044;-72
2023/08/23 03:32:14;;;;;;;14.93;6.67;;;;;;;15.40;100.00;23512.00;4907562;29;20056;-72
2023/08/23 03:34:39;;;;;;;8.40;5.88;;;;;;;15.40;100.00;21087.16;4906066;29;20097;-73
2023/08/23 03:37:06;;;;;;;15.10;6.33;;;;;;;15.37;100.00;19354.88;4911160;29;20543;-73
2023/08/23 03:39:31;;;;;;;9.90;6.90;;;;;;;15.35;100.00;20046.34;4912795;29;20032;-73
2023/08/23 03:41:57;;;;;;;7.67;5.87;;;;;;;15.32;100.00;20391.47;4911987;29;20031;-73
2023/08/23 03:44:22;;;;;;;9.37;5.63;;;;;;;15.28;100.00;19351.75;4912583;29;20032;-72
2023/08/23 03:46:47;;;;;;;8.73;6.20;;;;;;;15.27;100.00;19697.50;4911880;29;20028;-73
2023/08/23 03:49:15;;;;;;;10.27;6.60;;;;;;;15.28;100.00;19351.56;4908420;29;20040;-72
2023/08/23 03:51:40;;;;;;;8.82;6.28;;;;;;;15.21;100.00;19003.09;4912139;29;20484;-73
2023/08/23 03:54:06;;;;;;;10.47;7.40;;;;;;;15.16;100.00;20385.69;4905943;29;20017;-73
2023/08/23 03:56:31;;;;;;;11.67;6.40;;;;;;;15.15;100.00;18309.13;4913348;29;20032;-72
2023/08/23 03:58:58;;;;;;;10.47;6.87;;;;;;;15.18;100.00;16580.88;4906364;29;20044;-73
2023/08/23 04:01:23;;;;;;;;;;;;;;;15.19;100.00;16235.22;4909985;29;20039;-72
2023/08/23 04:03:48;;;;;;;9.43;7.43;;;;;;;15.17;100.00;16580.44;4906918;29;19915;-73
2023/08/23 04:06:14;;;;;;;9.53;6.53;;;;;;;15.14;100.00;17271.13;4908970;29;20425;-73
2023/08/23 04:08:39;;;;;;;11.40;6.47;;;;;;;15.13;100.00;17962.72;4909218;29;20035;-73
2023/08/23 04:11:05;;;;;;;10.93;6.80;;;;;;;15.07;100.00;17960.63;4908138;29;20099;-72
2023/08/23 04:13:30;;;;;;;10.40;6.40;;;;;;;15.05;100.00;17614.16;4906677;29;20025;-73
2023/08/23 04:15:55;;;;;;;11.47;7.40;;;;;;;15.04;100.00;17959.66;4903888;29;20406;-73
2023/08/23 04:18:21;;;;;;;10.30;7.17;;;;;;;15.08;100.00;16577.88;4910581;29;20020;-73
2023/08/23 04:20:46;;;;;;;10.77;7.07;;;;;;;15.06;100.00;15885.72;4909148;29;20433;-73
2023/08/23 04:23:12;;;;;;;9.50;6.83;;;;;;;15.03;100.00;18651.06;4907785;29;20052;-72
2023/08/23 04:25:37;;;;;;;8.77;6.90;;;;;;;14.99;100.00;20033.50;4908916;29;20060;-73
2023/08/23 04:28:03;;;;;;;6.57;5.87;;;;;;;15.00;100.00;19687.88;4912095;29;20400;-72
2023/08/23 04:30:28;;;;;;;13.27;7.77;;;;;;;15.05;100.00;18306.00;4910569;29;20131;-73
2023/08/23 04:32:53;;;;;;;10.83;7.50;;;;;;;15.05;100.00;18997.66;4906753;29;20095;-73
2023/08/23 04:35:19;;;;;;;11.07;8.30;;;;;;;15.07;100.00;18306.66;4910637;29;20427;-73
2023/08/23 04:37:44;;;;;;;10.93;8.17;;;;;;;15.16;100.00;16926.09;4906541;29;20042;-72
2023/08/23 04:40:10;;;;;;;9.10;7.20;;;;;;;15.18;100.00;15889.19;4905149;29;20556;-73
2023/08/23 04:42:37;;;;;;;13.47;8.33;;;;;;;15.18;100.00;14506.47;4912819;29;20035;-73
2023/08/23 04:45:03;;;;;;;12.65;7.85;;;;;;;15.14;100.00;15542.47;4909357;29;20036;-73
2023/08/23 04:47:30;;;;;;;13.30;8.13;;;;;;;15.17;100.00;14506.22;4907665;29;20025;-73
2023/08/23 04:49:56;;;;;;;12.77;7.82;;;;;;;15.11;100.00;15541.47;4907587;29;20515;-73
2023/08/23 04:52:21;;;;;;;15.77;8.30;;;;;;;15.11;100.00;17270.38;4910428;29;20025;-73
2023/08/23 04:54:47;;;;;;;10.20;7.43;;;;;;;15.13;100.00;17962.72;4904543;29;20388;-73
2023/08/23 04:57:12;;;;;;;12.37;8.57;;;;;;;15.17;100.00;16580.56;4909765;29;20036;-73
2023/08/23 04:59:38;;;;;;;11.30;7.83;;;;;;;15.19;100.00;17618.59;4909165;29;20489;-73
2023/08/23 05:02:04;;;;;;;20.67;10.37;;;;;;;15.28;100.00;16583.72;4909335;29;20131;-73
2023/08/23 05:04:29;;;;;;;14.00;8.57;;;;;;;15.30;100.00;18314.06;4908017;29;20024;-73
2023/08/23 05:06:54;;;;;;;11.63;8.57;;;;;;;15.34;100.00;16931.44;4907773;29;20421;-73
2023/08/23 05:09:20;;;;;;;14.27;9.83;;;;;;;15.37;100.00;17278.31;4906289;29;20032;-72
2023/08/23 05:11:45;;;;;;;14.50;9.07;;;;;;;15.43;100.00;18664.44;4910458;29;20060;-73
2023/08/23 05:14:10;;;;;;;11.63;8.83;;;;;;;15.47;100.00;18319.81;4905277;29;20032;-72
2023/08/23 05:16:36;;;;;;;14.97;9.10;;;;;;;15.58;100.00;18323.44;4908118;29;20507;-74
2023/08/23 05:19:01;;;;;;;18.67;9.83;;;;;;;15.60;100.00;20748.03;4908335;29;20039;-72
2023/08/23 05:21:27;;;;;;;13.87;8.93;;;;;;;15.69;100.00;22484.03;4905795;29;20032;-72
2023/08/23 05:23:52;;;;;;;22.60;9.87;;;;;;;15.81;100.00;21102.50;4908070;29;20078;-72
2023/08/23 05:26:18;;;;;;;15.87;9.20;;;;;;;15.90;100.00;19373.03;4909303;29;20032;-72
2023/08/23 05:28:43;;;;;;;13.77;10.13;;;;;;;15.97;100.00;19375.44;4903786;29;20036;-72
2023/08/23 05:31:09;;;;;;;13.97;10.10;;;;;;;16.08;100.00;19725.81;4909201;29;20036;-73
2023/08/23 05:33:35;;;;;;;15.50;10.83;;;;;;;16.15;100.00;19035.25;4903609;29;20032;-74
2023/08/23 05:36:00;;;;;;;19.30;11.20;;;;;;;16.23;100.00;18691.22;4911667;29;20047;-73
2023/08/23 05:38:25;;;;;;;20.43;11.07;;;;;;;16.23;100.00;21118.03;4904449;29;20476;-73
2023/08/23 05:40:51;;;;;;;17.33;12.23;;;;;;;16.31;100.00;21467.88;4910262;29;20071;-73
2023/08/23 05:43:17;;;;;;;19.98;12.48;;;;;;;16.42;100.00;19044.47;4905810;29;20036;-75
2023/08/23 05:45:43;;;;;;;17.00;12.13;;;;;;;16.47;100.00;18699.25;4910510;29;20096;-75
2023/08/23 05:48:09;;;;;;;27.10;13.48;;;;;;;16.58;100.00;16622.84;4909512;29;20495;-75
2023/08/23 05:50:34;;;;;;;17.73;12.00;;;;;;;16.58;100.00;15929.88;4909401;29;20040;-75
2023/08/23 05:53:00;;;;;;;18.27;12.53;;;;;;;16.63;100.00;15584.63;4903587;29;20493;-74
2023/08/23 05:55:25;;;;;;;19.90;13.03;;;;;;;16.70;100.00;14200.75;4907073;29;20055;-72
2023/08/23 05:57:51;;;;;;;19.27;11.40;;;;;;;16.72;100.00;15240.63;4907100;29;20032;-72
2023/08/23 06:00:16;;;;;;;19.67;14.03;;;;;;;16.85;100.00;13165.22;4906561;29;20111;-73
2023/08/23 06:02:43;;;;;;;22.03;13.53;;;;;;;16.95;100.00;11781.84;4910428;29;20039;-73
2023/08/23 06:05:10;;;;;;;23.65;14.93;;;;;;;17.02;100.00;11437.00;4908281;29;20028;-71
2023/08/23 06:07:37;;;;;;;20.63;13.70;;;;;;;17.04;100.00;12476.75;4906371;29;20115;-72
2023/08/23 06:10:03;;;;;;;20.73;14.00;;;;;;;17.11;100.00;12132.00;4909610;29;20568;-72
2023/08/23 06:12:28;;;;;;;27.47;14.17;;;;;;;17.20;100.00;12133.94;4905319;29;20048;-75
2023/08/23 06:14:55;;;;;;;22.90;14.43;;;;;;;17.28;100.00;12828.97;4909939;29;20076;-74
2023/08/23 06:17:20;;;;;;;32.45;14.70;;;;;;;17.38;100.00;12831.38;4905261;29;20055;-75
2023/08/23 06:19:45;;;;;;;26.80;14.37;;;;;;;17.45;100.00;12833.06;4910113;29;20040;-74
2023/08/23 06:22:11;;;;;;;26.27;14.03;;;;;;;17.55;100.00;14222.91;4906822;29;20508;-75
2023/08/23 06:24:36;;;;;;;28.97;16.13;;;;;;;17.61;100.00;14571.56;4908208;29;20032;-75
2023/08/23 06:27:02;;;;;;;27.87;14.23;;;;;;;17.73;100.00;14921.72;4903498;29;20051;-75
2023/08/23 06:29:27;;;;;;;26.17;14.63;;;;;;;17.83;100.00;16313.28;4906480;29;20107;-74
2023/08/23 06:31:52;;;;;;;25.97;14.37;;;;;;;17.87;100.00;18398.75;4907547;29;20047;-74
2023/08/23 06:34:18;;;;;;;26.70;14.80;;;;;;;17.93;100.00;19095.81;4910246;29;20029;-75
2023/08/23 06:36:43;;;;;;;28.50;14.37;;;;;;;18.05;100.00;20143.13;4908956;29;20138;-74
2023/08/23 06:39:10;;;;;;;36.97;15.50;;;;;;;18.15;100.00;22929.84;4911058;29;20031;-75
2023/08/23 06:41:36;;;;;;;23.35;14.60;;;;;;;18.30;100.00;24676.91;4907833;29;20421;-74
2023/08/23 06:44:01;;;;;;;26.30;14.80;;;;;;;18.52;100.00;27474.63;4907209;29;20036;-74
2023/08/23 06:46:28;;;;;;;25.43;14.13;;;;;;;18.64;100.00;32714.63;4909775;29;20229;-77
2023/08/23 06:48:54;;;;;;;33.42;15.27;;;;;;;18.67;100.00;37258.59;5056726;23;20425;-77
2023/08/23 06:51:20;;;;;;;35.92;15.70;;;;;;;18.72;100.00;37961.41;4919168;29;20024;-78
2023/08/23 06:53:47;;;;;;;29.67;14.75;;;;;;;19.17;100.00;42192.38;4908573;29;20055;-73
2023/08/23 06:56:13;;;;;;;35.97;15.02;;;;;;;20.08;100.00;65834.47;4912614;29;20091;-73
2023/08/23 06:58:39;;;;;;;22.80;13.27;;;;;;;21.04;100.00;114306.66;4909319;29;20518;-77
2023/08/23 07:01:14;;;;;;;27.83;12.97;;;;;;;21.68;100.00;156906.91;4913105;29;20495;-77
2023/08/23 08:28:27;;;;;;;23.42;13.23;;;;;;;22.67;100.00;157164.31;5132019;23;20558;-75
2023/08/23 08:30:52;;;;;;;25.53;13.67;;;;;;;22.63;100.00;157155.09;4903499;29;20044;-75
2023/08/23 08:33:17;;;;;;;28.07;14.03;;;;;;;22.66;100.00;157161.66;4902311;29;20039;-75
2023/08/23 08:35:43;;;;;;;28.37;13.40;;;;;;;22.64;100.00;157156.44;4903627;29;20059;-75
2023/08/23 08:38:09;;;;;;;19.87;12.77;;;;;;;22.72;100.00;157177.38;4904503;29;21655;-74
2023/08/23 08:40:37;;;;;;;31.77;15.57;;;;;;;22.76;100.00;157189.13;4907310;29;20091;-75
2023/08/23 08:43:02;;;;;;;27.52;15.95;;;;;;;22.78;100.00;157193.03;4905549;29;20067;-75
2023/08/23 08:45:28;;;;;;;22.43;14.20;;;;;;;23.01;100.00;157254.47;4899910;29;20052;-75
2023/08/23 08:47:54;;;;;;;24.35;14.00;;;;;;;22.98;100.00;157245.28;4901220;29;20838;-75
2023/08/23 08:50:20;;;;;;;21.40;12.70;;;;;;;23.00;100.00;157250.53;4903503;29;20033;-75
2023/08/23 08:52:51;;;;;;;26.90;14.35;;;;;;;23.05;100.00;157263.63;4904432;29;20314;-74
2023/08/23 08:55:19;;;;;;;25.23;13.07;;;;;;;23.20;100.00;157304.16;4902147;29;20059;-75
2023/08/23 08:57:47;;;;;;;27.27;12.35;;;;;;;23.33;100.00;157338.19;4900879;29;20031;-75
2023/08/23 09:00:13;;;;;;;24.77;13.93;;;;;;;23.38;100.00;157351.22;4901709;29;20035;-75
2023/08/23 09:02:41;;;;;;;27.63;14.10;;;;;;;23.43;100.00;157363.00;4900491;29;20579;-75
2023/08/23 09:05:07;;;;;;;21.70;12.40;;;;;;;23.52;100.00;157386.56;4899798;29;20036;-76
2023/08/23 09:07:32;;;;;;;20.90;12.25;;;;;;;23.60;100.00;157407.44;4905031;29;20084;-75
2023/08/23 09:09:58;;;;;;;21.70;11.60;;;;;;;23.45;100.00;157368.22;5648089;23;20049;-76
2023/08/23 09:12:23;;;;;;;25.10;12.70;;;;;;;23.37;100.00;157347.31;4886309;29;20385;-74
2023/08/23 09:14:50;;;;;;;25.30;12.50;;;;;;;23.60;100.00;157408.78;4892065;29;20707;-75
2023/08/23 09:22:25;;;;;;;21.83;11.85;;;;;;;24.41;100.00;157619.38;4923845;23;20065;-72
2023/08/23 09:24:51;;;;;;;25.10;10.53;;;;;;;24.32;100.00;157595.88;4888451;29;20036;-72
2023/08/23 09:27:20;;;;;;;28.27;12.50;;;;;;;24.39;100.00;157615.44;4887423;29;20058;-72
2023/08/23 10:04:32;;;;;;;14.38;6.72;;;;;;;25.44;100.00;157889.13;6236488;22;1277354;-73
2023/08/23 10:06:58;;;;;;;19.30;8.48;;;;;;;25.61;100.00;157933.63;6279505;22;20258;-74
2023/08/23 10:09:23;;;;;;;16.83;8.45;;;;;;;25.54;100.00;157915.28;6280895;22;20377;-75
2023/08/23 10:11:50;;;;;;;22.77;9.40;;;;;;;25.40;100.00;157878.63;6278857;22;20004;-75
2023/08/23 10:14:17;;;;;;;15.43;6.85;;;;;;;25.55;100.00;157919.22;6281549;22;20072;-77
2023/08/23 10:16:43;;;;;;;19.38;7.75;;;;;;;25.44;100.00;157889.13;6281465;22;19999;-78
2023/08/23 10:19:09;;;;;;;16.67;8.63;;;;;;;25.72;100.00;157962.44;6280732;22;20000;-78
2023/08/23 10:21:34;;;;;;;18.42;8.60;;;;;;;25.54;100.00;157916.59;6282175;22;20003;-77
2023/08/23 10:24:04;;;;;;;15.20;7.80;;;;;;;26.05;100.00;158048.91;6282547;22;20010;-77
2023/08/23 10:26:44;;;;;;;17.67;6.28;;;;;;;26.13;100.00;158071.19;6283893;22;20004;-76
2023/08/23 10:29:09;;;;;;;11.95;6.18;;;;;;;26.16;100.00;158077.72;6280873;22;20326;-76
2023/08/23 10:31:35;;;;;;;15.13;4.50;;;;;;;26.20;100.00;158089.50;6295016;22;20002;-77
2023/08/23 10:34:01;;;;;;;13.27;5.90;;;;;;;26.41;100.00;158143.25;6304425;22;19996;-77
2023/08/23 10:36:28;;;;;;;17.52;6.88;;;;;;;26.28;100.00;158109.16;6305566;22;20034;-76
2023/08/23 10:38:57;;;;;;;16.90;6.85;;;;;;;26.39;100.00;158139.31;6302583;22;20004;-76
2023/08/23 10:41:24;;;;;;;13.43;7.57;;;;;;;26.58;100.00;158187.84;6298126;22;20411;-77
2023/08/23 14:47:27;;;;;;;7.28;2.53;;;;;;;28.54;100.00;158703.25;6171592;23;20026;-73
2023/08/23 14:49:52;;;;;;;13.27;2.42;;;;;;;28.37;100.00;158658.59;6213143;23;20083;-72
2023/08/23 14:52:18;;;;;;;5.27;2.43;;;;;;;28.33;100.00;158646.81;6213378;23;20399;-73
2023/08/23 14:54:46;;;;;;;3.10;1.55;;;;;;;28.42;100.00;158670.44;6185933;23;20249;-74
2023/08/23 14:57:14;;;;;;;6.85;2.47;;;;;;;28.54;100.00;158701.97;6212345;23;20449;-73
2023/08/23 14:59:43;;;;;;;4.47;1.40;;;;;;;28.67;100.00;158737.38;6186908;23;20015;-73
2023/08/23 15:02:12;;;;;;;3.70;1.80;;;;;;;28.88;100.00;158791.19;6213638;23;20001;-73
2023/08/23 15:04:42;;;;;;;3.90;1.50;;;;;;;28.59;100.00;158715.09;6214350;23;20460;-73
2023/08/23 15:07:08;;;;;;;2.72;1.48;;;;;;;28.55;100.00;158704.59;6186988;23;19997;-76
2023/08/23 15:09:34;;;;;;;9.90;1.58;;;;;;;28.51;100.00;158695.41;6186762;23;20066;-75
2023/08/23 15:11:59;;;;;;;;;;;;;;;28.51;100.00;158694.06;6214391;23;20012;-77
2023/08/23 15:14:25;;;;;;;9.00;2.35;;;;;;;28.63;100.00;158725.53;6213725;23;20072;-75
2023/08/23 15:16:50;;;;;;;7.07;2.00;;;;;;;28.67;100.00;158736.06;6216399;23;20008;-71
2023/08/23 15:19:15;;;;;;;4.50;1.67;;;;;;;28.69;100.00;158741.28;6213677;23;20005;-72
2023/08/23 15:21:41;;;;;;;5.57;1.50;;;;;;;28.51;100.00;158695.41;6213565;23;20230;-73
2023/08/23 15:24:06;;;;;;;8.97;1.60;;;;;;;28.42;100.00;158670.44;6185390;23;20070;-72
2023/08/23 15:26:31;;;;;;;4.67;1.60;;;;;;;28.43;100.00;158673.09;6213834;23;20222;-72
2023/08/23 15:28:57;;;;;;;4.40;1.70;;;;;;;28.28;100.00;158634.97;6213211;23;20222;-73
2023/08/23 15:31:22;;;;;;;3.53;1.53;;;;;;;28.34;100.00;158649.44;6213944;23;20080;-72
2023/08/23 15:33:47;;;;;;;4.27;2.30;;;;;;;28.22;100.00;158619.25;6213243;23;20222;-72
2023/08/23 15:41:23;;;;;;;7.95;1.55;;;;;;;27.83;100.00;158515.63;6165252;22;20016;-72
2023/08/23 15:43:48;;;;;;;6.20;1.83;;;;;;;27.67;100.00;158474.94;6271621;22;20014;-71
2023/08/23 15:46:14;;;;;;;6.63;1.80;;;;;;;27.44;100.00;158414.66;6273456;22;20053;-72
2023/08/23 15:48:40;;;;;;;7.37;2.23;;;;;;;27.48;100.00;158425.09;6274170;22;20079;-72
2023/08/23 16:35:06;;;;;;;4.53;1.73;;;;;;;25.66;100.00;157946.72;6208121;22;20029;-74
2023/08/23 16:37:33;;;;;;;5.70;2.13;;;;;;;25.60;100.00;157932.31;6212098;23;20008;-74
2023/08/23 16:39:59;;;;;;;7.00;2.80;;;;;;;25.57;100.00;157923.16;6207439;23;20008;-74
2023/08/23 16:42:25;;;;;;;3.38;2.03;;;;;;;25.42;100.00;157883.84;6209152;23;20000;-74
2023/08/23 16:44:50;;;;;;;12.05;1.80;;;;;;;25.40;100.00;157879.91;6207792;23;20096;-74
2023/08/23 16:47:16;;;;;;;8.90;2.27;;;;;;;25.20;100.00;157826.22;6209133;23;20390;-74
2023/08/23 16:49:41;;;;;;;6.87;2.30;;;;;;;25.21;100.00;157828.81;6209260;23;20008;-74
2023/08/23 16:52:06;;;;;;;6.37;2.00;;;;;;;25.19;100.00;157823.59;6208468;23;20414;-74
2023/08/23 16:54:32;;;;;;;5.40;2.03;;;;;;;25.13;100.00;157807.91;6208286;23;20115;-74
2023/08/23 17:30:41;;;;;;;5.70;2.30;;;;;;;24.02;100.00;157517.34;6194920;22;20030;-74
2023/08/23 17:33:06;;;;;;;9.87;1.67;;;;;;;23.94;100.00;157496.41;6268527;22;20390;-74
2023/08/23 17:35:31;;;;;;;4.20;1.80;;;;;;;23.76;100.00;157449.28;6271700;22;20024;-75
2023/08/23 17:50:53;;;;;;;6.18;2.05;;;;;;;23.09;100.00;157274.03;6209031;22;20059;-74
2023/08/23 17:53:18;;;;;;;8.00;1.80;;;;;;;23.03;100.00;157258.34;6211857;23;20012;-75
2023/08/23 17:55:44;;;;;;;5.37;1.80;;;;;;;22.95;100.00;157237.47;6213351;23;20058;-74
2023/08/23 19:18:31;;;;;;;8.23;1.85;;;;;;;20.71;100.00;156653.56;6244391;22;20035;-70
2023/08/23 19:20:57;;;;;;;7.53;2.25;;;;;;;20.65;100.00;156636.63;6270975;22;20026;-72
2023/08/23 19:23:22;;;;;;;10.13;2.37;;;;;;;20.59;100.00;156620.97;6273342;22;20079;-72
2023/08/23 19:25:47;;;;;;;6.67;2.23;;;;;;;20.57;100.00;156615.72;6273731;22;20003;-71
2023/08/23 19:28:13;;;;;;;4.13;1.70;;;;;;;20.48;100.00;156593.53;6275998;22;20010;-72
2023/08/23 19:30:38;;;;;;;7.20;2.20;;;;;;;20.42;100.00;156577.91;6272399;22;20012;-72
2023/08/23 19:33:04;;;;;;;3.63;1.70;;;;;;;20.40;100.00;156571.38;6275331;22;20093;-72
2023/08/23 19:35:43;;;;;;;6.43;2.00;;;;;;;20.38;100.00;156566.19;6273752;22;20003;-72
2023/08/23 19:38:10;;;;;;;7.75;2.03;;;;;;;20.40;100.00;156571.38;6273385;22;20000;-72
2023/08/23 19:40:35;;;;;;;;;;;;;;;20.33;100.00;156554.41;6274969;22;20004;-72
2023/08/23 19:43:01;;;;;;;3.83;2.10;;;;;;;20.27;100.00;156538.75;6275159;22;19911;-75
2023/08/23 19:45:27;;;;;;;7.20;2.45;;;;;;;20.24;100.00;156529.63;6274253;22;20012;-73
2023/08/23 19:47:52;;;;;;;6.67;2.47;;;;;;;20.23;100.00;156527.03;6275175;22;20449;-73
2023/08/23 19:50:18;;;;;;;8.73;2.13;;;;;;;20.18;100.00;156515.25;6275271;22;20000;-73
2023/08/23 19:52:45;;;;;;;8.80;2.20;;;;;;;20.10;100.00;156493.09;6274634;22;20004;-73
2023/08/23 19:55:11;;;;;;;3.75;2.03;;;;;;;20.09;100.00;156490.50;6274210;22;20495;-74
2023/08/23 19:57:38;;;;;;;6.55;2.25;;;;;;;20.08;100.00;156489.22;6271712;22;20026;-74
2023/08/23 20:00:04;;;;;;;8.02;2.33;;;;;;;20.02;100.00;156473.47;6273388;22;20498;-74
2023/08/23 20:02:30;;;;;;;4.75;2.33;;;;;;;19.97;100.00;156460.47;6272802;22;20437;-74
2023/08/23 20:04:56;;;;;;;7.82;2.30;;;;;;;19.93;100.00;156448.72;6273101;22;20014;-74
2023/08/23 20:07:33;;;;;;;4.83;2.37;;;;;;;19.88;100.00;156437.00;6273423;22;20004;-73
2023/08/23 20:10:01;;;;;;;8.88;2.92;;;;;;;19.88;100.00;156435.66;6272058;22;20027;-74
2023/08/23 20:12:27;;;;;;;5.22;2.47;;;;;;;19.84;100.00;156426.56;6267163;22;20015;-73
2023/08/23 20:14:52;;;;;;;4.97;2.13;;;;;;;19.76;100.00;156405.72;6268611;22;20011;-73
2023/08/23 20:17:18;;;;;;;12.47;2.20;;;;;;;19.75;100.00;156403.06;6268841;22;20026;-73